Hlavní strana
METAR-TAF:

METAR-TAF

Letiště :

Mobile, Alabama, Spojené státy americké

zeměpisná šířka: 30-41-18N, zeměpisná délka: 088-14-44W, výška: 66 m

Aktuální stav počasí

Zpráva byla vytvořena před 49 minutami, v 16:56 UTC
Severní vítr 13 kt s nárazy do 19 kt
Teplota 16°C
Vlhkost vzduchu 39%
Tlak 1022 hPa
Viditelnost: 16.1 km
Jasno

METAR: KMOB 151656Z 36013G19KT 10SM CLR 16/02 A3019 RMK AO2 SLP221 T01560017

Čas: 11:45 (17:45 UTC)

Předpověď počasí

Zpráva byla vytvořena před 13 minutami, v 17:32 UTC
Předpověď platná od 15 v 18 UTC do 16 v 18 UTC
Severní vítr 13 kt s nárazy do 20 kt
Viditelnost: 10 km
Jasno
Od 16 v 0000 UTC
Severoseverozápadní vítr 9 kt
Viditelnost: 10 km
Jasno

TAF: KMOB 151732Z 1518/1618 36013G20KT P6SM SKC FM160000 34009KT P6SM SKC

Stav a předpovědi počasí z více než 4 000 letišť (zprávy METAR a TAF).

Červené a žluté tečky na mapě představují dostupné meteorologické stanice.

Když kurzor umístíte na tečku, zobrazí se název stanice.

Pak kliknutím zobrazíte stav a předpověď počasí.

Chcete-li změnit mapu, kliknutím na zelené tlačítko se znaménkem +mapu přiblížíte, kliknutím na zelené tlačítko se znaménkem – mapu oddálíte a kliknutím na zelené šipky přejdete na sousední mapy.


METAR-TAF: